Time;durP1;ratioP1;P1;durP2;ratioP2;P2;SDS_P1;SDS_P2;PMS_P1;PMS_P2;Temp;Humidity;BMP_temperature;BMP_pressure;BME280_temperature;BME280_humidity;BME280_pressure;Samples;Min_cycle;Max_cycle;Signal;HPM_P1;HPM_P2
2024/02/01 00:00:32;;;;;;;10.52;3.03;;;10.70;99.90;;;;;;5094407;28;20064;-65
2024/02/01 00:02:59;;;;;;;9.52;2.97;;;10.70;99.90;;;;;;5100716;28;20051;-65
2024/02/01 00:05:26;;;;;;;8.15;2.58;;;10.80;99.90;;;;;;5093434;28;20062;-65
2024/02/01 00:07:53;;;;;;;9.82;2.70;;;10.70;99.90;;;;;;5099628;28;20140;-65
2024/02/01 00:10:19;;;;;;;10.48;2.53;;;10.70;99.90;;;;;;5090467;28;20056;-65
2024/02/01 00:12:46;;;;;;;8.85;2.83;;;10.70;99.90;;;;;;5094833;28;20043;-65
2024/02/01 00:15:13;;;;;;;10.02;3.00;;;10.70;99.90;;;;;;5096576;28;20463;-64
2024/02/01 00:17:40;;;;;;;8.73;2.88;;;10.70;99.90;;;;;;5098221;28;20048;-64
2024/02/01 00:20:07;;;;;;;10.25;3.00;;;10.70;99.90;;;;;;5095061;28;20519;-65
2024/02/01 00:22:34;;;;;;;5.10;2.22;;;10.70;99.90;;;;;;5089591;28;20105;-64
2024/02/01 00:25:01;;;;;;;7.50;2.53;;;10.70;99.90;;;;;;5098525;28;20105;-68
2024/02/01 00:27:28;;;;;;;7.00;2.33;;;10.70;99.90;;;;;;5095434;28;20131;-65
2024/02/01 00:29:55;;;;;;;6.47;2.97;;;10.70;99.90;;;;;;5096577;28;20130;-64
2024/02/01 00:32:22;;;;;;;9.32;2.50;;;10.80;99.90;;;;;;5096460;28;20127;-64
2024/02/01 00:34:49;;;;;;;8.43;2.53;;;10.80;99.90;;;;;;5096375;28;20051;-64
2024/02/01 00:37:16;;;;;;;6.78;4.07;;;10.80;99.90;;;;;;5094280;28;20071;-65
2024/02/01 00:39:43;;;;;;;6.57;3.03;;;10.80;99.90;;;;;;5100530;28;20092;-64
2024/02/01 00:42:10;;;;;;;8.55;2.42;;;10.80;99.90;;;;;;5099167;28;20109;-65
2024/02/01 00:44:37;;;;;;;6.93;2.15;;;10.80;99.90;;;;;;5093075;28;20052;-65
2024/02/01 00:47:06;;;;;;;3.58;2.17;;;10.80;99.90;;;;;;5091529;28;20327;-64
2024/02/01 00:49:34;;;;;;;10.23;2.10;;;10.80;99.90;;;;;;5093536;28;20052;-65
2024/02/01 00:52:02;;;;;;;4.07;1.83;;;10.80;99.90;;;;;;5102268;28;20412;-65
2024/02/01 00:54:30;;;;;;;6.68;1.92;;;10.80;99.90;;;;;;5093090;28;20132;-65
2024/02/01 00:56:56;;;;;;;6.75;2.28;;;10.80;99.90;;;;;;5088424;28;20044;-64
2024/02/01 00:59:24;;;;;;;5.93;1.80;;;10.80;99.90;;;;;;5093102;28;20139;-64
2024/02/01 01:01:51;;;;;;;10.52;2.80;;;10.90;99.90;;;;;;5095076;28;20056;-67
2024/02/01 01:04:17;;;;;;;6.40;2.20;;;10.80;99.90;;;;;;5089278;28;20051;-64
2024/02/01 01:06:44;;;;;;;9.70;2.40;;;10.80;99.90;;;;;;5086188;28;20045;-66
2024/02/01 01:09:12;;;;;;;4.97;1.85;;;10.80;99.90;;;;;;5094582;28;20075;-65
2024/02/01 01:11:39;;;;;;;4.97;1.63;;;10.80;99.90;;;;;;5104420;28;20048;-65
2024/02/01 01:14:06;;;;;;;3.33;2.00;;;10.80;99.90;;;;;;5096752;28;20186;-65
2024/02/01 01:16:33;;;;;;;5.13;1.45;;;10.80;99.90;;;;;;5093531;28;20316;-66
2024/02/01 01:19:00;;;;;;;3.90;1.58;;;10.90;99.90;;;;;;5097463;28;20101;-67
2024/02/01 01:21:27;;;;;;;6.00;1.88;;;10.80;99.90;;;;;;5099146;28;20123;-66
2024/02/01 01:23:54;;;;;;;4.45;1.75;;;10.80;99.90;;;;;;5087095;28;20050;-65
2024/02/01 01:26:25;;;;;;;4.88;2.22;;;10.90;99.90;;;;;;5092272;28;20059;-65
2024/02/01 01:28:52;;;;;;;7.18;1.70;;;10.90;99.90;;;;;;5089445;28;20044;-65
2024/02/01 01:31:19;;;;;;;3.08;1.35;;;10.90;99.90;;;;;;5089387;28;20176;-65
2024/02/01 01:33:46;;;;;;;4.05;1.77;;;10.90;99.90;;;;;;5088762;28;20047;-64
2024/02/01 01:36:13;;;;;;;4.65;1.65;;;10.80;99.90;;;;;;5095226;28;20057;-65
2024/02/01 01:38:40;;;;;;;4.38;1.60;;;10.80;99.90;;;;;;5099476;28;20166;-65
2024/02/01 01:41:07;;;;;;;9.48;2.13;;;10.70;99.90;;;;;;5097227;28;20259;-64
2024/02/01 01:43:34;;;;;;;4.47;1.70;;;10.70;99.90;;;;;;5089726;28;20060;-65
2024/02/01 01:46:05;;;;;;;3.10;1.65;;;10.70;99.90;;;;;;5090752;28;20063;-65
2024/02/01 01:48:32;;;;;;;4.05;1.30;;;10.70;99.90;;;;;;5101356;28;20094;-65
2024/02/01 01:50:59;;;;;;;4.90;1.30;;;10.70;99.90;;;;;;5093917;28;20040;-64
2024/02/01 01:53:27;;;;;;;3.97;1.20;;;10.80;99.90;;;;;;5090097;28;20052;-65
2024/02/01 01:55:54;;;;;;;5.53;1.67;;;10.70;99.90;;;;;;5085422;28;20333;-65
2024/02/01 01:58:22;;;;;;;2.88;1.38;;;10.70;99.90;;;;;;5108779;28;20564;-64
2024/02/01 02:00:49;;;;;;;3.80;1.52;;;10.80;99.90;;;;;;5100359;28;20044;-64
2024/02/01 02:03:16;;;;;;;4.80;1.67;;;10.80;99.90;;;;;;5106712;28;20062;-65
2024/02/01 02:05:43;;;;;;;5.50;2.03;;;10.80;99.90;;;;;;5095549;28;20414;-66
2024/02/01 02:08:09;;;;;;;3.17;1.98;;;10.80;99.90;;;;;;5084297;28;20105;-65
2024/02/01 02:10:36;;;;;;;2.78;1.10;;;10.80;99.90;;;;;;5097990;28;20044;-66
2024/02/01 02:13:03;;;;;;;4.60;1.70;;;10.80;99.90;;;;;;5090435;28;20106;-65
2024/02/01 02:15:31;;;;;;;2.15;1.10;;;10.80;99.90;;;;;;5099870;28;20417;-65
2024/02/01 02:17:58;;;;;;;1.95;0.70;;;10.80;99.90;;;;;;5095590;28;20051;-66
2024/02/01 02:20:25;;;;;;;2.08;0.60;;;10.70;99.90;;;;;;5099849;28;20044;-65
2024/02/01 02:22:52;;;;;;;3.90;0.88;;;10.80;99.90;;;;;;5091578;28;20089;-65
2024/02/01 02:25:20;;;;;;;3.05;0.70;;;10.80;99.90;;;;;;5082590;28;20131;-65
2024/02/01 02:27:47;;;;;;;1.95;1.00;;;10.70;99.90;;;;;;5092399;28;20072;-65
2024/02/01 02:30:14;;;;;;;2.92;1.40;;;10.70;99.90;;;;;;5101692;28;20048;-65
2024/02/01 02:32:41;;;;;;;2.45;1.20;;;10.60;99.90;;;;;;5105132;28;20522;-65
2024/02/01 02:35:12;;;;;;;6.70;1.40;;;10.60;99.90;;;;;;5097664;28;20060;-65
2024/02/01 02:37:49;;;;;;;11.43;1.45;;;10.50;99.90;;;;;;5098483;28;20460;-66
2024/02/01 02:40:17;;;;;;;6.65;1.25;;;10.40;99.90;;;;;;5091639;28;20141;-65
2024/02/01 02:42:44;;;;;;;10.10;1.38;;;10.30;99.90;;;;;;5097872;28;20055;-65
2024/02/01 02:45:11;;;;;;;6.97;1.77;;;10.20;99.90;;;;;;5098300;28;20043;-65
2024/02/01 02:47:38;;;;;;;10.70;2.58;;;10.10;99.90;;;;;;5098527;28;20270;-65
2024/02/01 02:50:06;;;;;;;6.82;1.65;;;10.10;99.90;;;;;;5103419;28;20043;-65
2024/02/01 02:52:33;;;;;;;13.27;2.38;;;10.00;99.90;;;;;;5097066;28;20059;-65
2024/02/01 02:54:59;;;;;;;6.55;2.03;;;10.00;99.90;;;;;;5103729;28;20793;-65
2024/02/01 02:57:27;;;;;;;10.50;1.58;;;9.90;99.90;;;;;;5098706;28;20096;-65
2024/02/01 02:59:53;;;;;;;15.40;2.30;;;9.90;99.90;;;;;;5093496;28;20508;-65
2024/02/01 03:02:20;;;;;;;9.32;1.70;;;9.90;99.90;;;;;;5093236;28;20045;-65
2024/02/01 03:04:47;;;;;;;10.18;1.70;;;9.80;99.90;;;;;;5096404;28;20044;-65
2024/02/01 03:07:14;;;;;;;13.55;2.10;;;9.80;99.90;;;;;;5094470;28;20058;-66
2024/02/01 03:09:41;;;;;;;12.07;2.03;;;9.70;99.90;;;;;;5100657;28;20074;-65
2024/02/01 03:12:07;;;;;;;15.20;2.85;;;9.70;99.90;;;;;;5101539;28;20097;-65
2024/02/01 03:14:38;;;;;;;15.98;2.35;;;9.70;99.90;;;;;;5103300;28;20087;-65
2024/02/01 03:17:05;;;;;;;14.48;1.98;;;9.70;99.90;;;;;;5091780;28;20050;-65
2024/02/01 03:19:35;;;;;;;8.30;1.92;;;9.60;99.90;;;;;;5097043;28;20078;-65
2024/02/01 03:22:02;;;;;;;10.57;1.67;;;9.50;99.90;;;;;;5103713;28;20055;-65
2024/02/01 03:24:32;;;;;;;6.95;2.30;;;9.50;99.90;;;;;;5094769;28;20055;-64
2024/02/01 03:26:59;;;;;;;17.45;2.35;;;9.40;99.90;;;;;;5096194;28;20061;-64
2024/02/01 03:29:35;;;;;;;15.68;2.22;;;9.30;99.90;;;;;;5098740;28;20052;-64
2024/02/01 03:32:05;;;;;;;24.60;3.65;;;9.30;99.90;;;;;;5101955;28;20127;-64
2024/02/01 03:34:32;;;;;;;14.15;2.85;;;9.20;99.90;;;;;;5097740;28;20094;-63
2024/02/01 03:37:01;;;;;;;12.32;2.13;;;9.10;99.90;;;;;;5104165;28;20043;-64
2024/02/01 03:39:29;;;;;;;17.52;3.25;;;9.00;99.90;;;;;;5096753;28;20119;-64
2024/02/01 03:41:56;;;;;;;25.67;3.92;;;9.00;99.90;;;;;;5105505;28;20047;-64
2024/02/01 03:44:24;;;;;;;14.93;3.05;;;9.00;99.90;;;;;;5096441;28;20044;-63
2024/02/01 03:46:51;;;;;;;22.08;3.42;;;9.00;99.90;;;;;;5093186;28;20055;-64
2024/02/01 03:49:19;;;;;;;24.08;3.60;;;8.90;99.90;;;;;;5096745;28;20895;-64
2024/02/01 03:51:46;;;;;;;11.13;2.55;;;8.80;99.90;;;;;;5095810;28;20051;-65
2024/02/01 03:54:14;;;;;;;20.95;2.85;;;8.80;99.90;;;;;;5098031;28;20460;-64
2024/02/01 03:56:41;;;;;;;25.63;3.53;;;8.70;99.90;;;;;;5089684;28;20123;-67
2024/02/01 03:59:09;;;;;;;14.63;3.03;;;8.70;99.90;;;;;;5091801;28;20058;-64
2024/02/01 04:01:36;;;;;;;19.88;3.17;;;8.70;99.90;;;;;;5104250;28;20539;-63
2024/02/01 04:04:05;;;;;;;14.13;2.58;;;8.60;99.90;;;;;;5099806;28;20090;-64
2024/02/01 04:06:35;;;;;;;20.77;3.40;;;8.60;99.90;;;;;;5096276;28;20043;-65
2024/02/01 04:09:03;;;;;;;18.08;3.40;;;8.50;99.90;;;;;;5100823;28;20120;-63
2024/02/01 04:11:31;;;;;;;18.27;3.58;;;8.50;99.90;;;;;;5094373;28;20310;-66
2024/02/01 04:13:58;;;;;;;19.08;2.45;;;8.50;99.90;;;;;;5102518;28;20117;-64
2024/02/01 04:16:24;;;;;;;19.60;2.95;;;8.50;99.90;;;;;;5098451;28;20120;-63
2024/02/01 04:18:52;;;;;;;23.05;3.42;;;8.50;99.90;;;;;;5105276;28;20439;-64
2024/02/01 04:21:19;;;;;;;16.60;3.40;;;8.50;99.90;;;;;;5096682;28;20044;-63
2024/02/01 04:23:46;;;;;;;14.70;3.47;;;8.50;99.90;;;;;;5098810;28;20048;-64
2024/02/01 04:26:15;;;;;;;19.67;2.97;;;8.40;99.90;;;;;;5102429;28;20044;-63
2024/02/01 04:28:45;;;;;;;19.95;4.15;;;8.30;99.90;;;;;;5104334;28;20050;-63
2024/02/01 04:31:12;;;;;;;21.17;2.45;;;8.20;99.90;;;;;;5098281;28;20523;-65
2024/02/01 04:33:40;;;;;;;22.80;3.13;;;8.10;99.90;;;;;;5108072;28;20043;-63
2024/02/01 04:36:08;;;;;;;17.70;2.70;;;8.10;99.90;;;;;;5101968;28;20071;-64
2024/02/01 04:38:36;;;;;;;21.55;2.65;;;8.10;99.90;;;;;;5098891;28;20055;-64
2024/02/01 04:41:06;;;;;;;21.42;3.47;;;8.10;99.90;;;;;;5096847;28;20463;-65
2024/02/01 04:43:33;;;;;;;18.23;2.70;;;8.20;99.90;;;;;;5105077;28;20143;-64
2024/02/01 04:46:00;;;;;;;20.70;3.33;;;8.20;99.90;;;;;;5097651;28;20404;-64
2024/02/01 04:48:27;;;;;;;18.30;2.97;;;8.20;99.90;;;;;;5096509;28;20056;-64
2024/02/01 04:50:54;;;;;;;16.58;2.50;;;8.20;99.90;;;;;;5102600;28;20182;-64
2024/02/01 04:53:21;;;;;;;15.20;3.83;;;8.10;99.90;;;;;;5100587;28;20039;-64
2024/02/01 04:55:50;;;;;;;12.30;2.42;;;8.20;99.90;;;;;;5101539;28;20044;-64
2024/02/01 04:58:20;;;;;;;23.90;3.22;;;8.20;99.90;;;;;;5099077;28;20068;-63
2024/02/01 05:00:47;;;;;;;14.27;2.42;;;8.20;99.90;;;;;;5091956;28;20052;-65
2024/02/01 05:03:15;;;;;;;18.20;3.28;;;8.20;99.90;;;;;;5099730;28;20052;-64
2024/02/01 05:05:45;;;;;;;23.42;6.18;;;8.20;99.90;;;;;;5088006;28;20074;-64
2024/02/01 05:08:13;;;;;;;14.98;3.33;;;8.10;99.90;;;;;;5097027;28;20058;-64
2024/02/01 05:10:44;;;;;;;15.70;2.40;;;8.10;99.90;;;;;;5103582;28;20043;-64
2024/02/01 05:13:12;;;;;;;22.02;2.70;;;7.90;99.90;;;;;;5104003;28;20051;-64
2024/02/01 05:15:41;;;;;;;11.73;2.35;;;7.80;99.90;;;;;;5102518;28;20048;-64
2024/02/01 05:18:08;;;;;;;10.20;2.40;;;7.80;99.90;;;;;;5092220;28;20076;-64
2024/02/01 05:20:36;;;;;;;23.80;3.20;;;7.80;99.90;;;;;;5101704;28;20496;-64
2024/02/01 05:23:03;;;;;;;16.80;4.03;;;7.80;99.90;;;;;;5095617;28;20044;-64
2024/02/01 05:25:30;;;;;;;12.50;2.38;;;7.80;99.90;;;;;;5093854;28;20059;-64
2024/02/01 05:27:57;;;;;;;30.70;3.85;;;7.70;99.90;;;;;;5097711;28;20039;-64
2024/02/01 05:30:24;;;;;;;18.85;3.92;;;7.60;99.90;;;;;;5093955;28;20424;-64
2024/02/01 05:32:52;;;;;;;17.38;2.75;;;7.50;99.90;;;;;;5096500;28;20114;-64
2024/02/01 05:35:30;;;;;;;17.33;2.78;;;7.40;99.90;;;;;;5103515;28;20047;-64
2024/02/01 05:37:59;;;;;;;13.38;3.33;;;7.30;99.90;;;;;;5098004;28;20044;-64
2024/02/01 05:40:27;;;;;;;18.30;2.50;;;7.30;99.90;;;;;;5109646;28;20462;-64
2024/02/01 05:42:53;;;;;;;19.73;3.75;;;7.30;99.90;;;;;;5096207;28;20518;-64
2024/02/01 05:45:20;;;;;;;19.40;3.35;;;7.30;99.90;;;;;;5100993;28;20143;-64
2024/02/01 05:47:51;;;;;;;21.40;3.47;;;7.30;99.90;;;;;;5103555;28;20042;-65
2024/02/01 05:50:18;;;;;;;17.02;2.92;;;7.30;99.90;;;;;;5099034;28;20473;-64
2024/02/01 05:52:45;;;;;;;19.50;3.05;;;7.20;99.90;;;;;;5102283;28;20120;-64
2024/02/01 05:55:13;;;;;;;19.15;3.70;;;7.20;99.90;;;;;;5096923;28;20397;-64
2024/02/01 05:57:43;;;;;;;31.30;3.95;;;7.20;99.90;;;;;;5104506;28;20036;-64
2024/02/01 06:00:11;;;;;;;25.10;5.00;;;7.20;99.90;;;;;;5097675;28;20628;-64
2024/02/01 06:02:39;;;;;;;17.23;2.65;;;7.20;99.90;;;;;;5097417;28;20043;-64
2024/02/01 06:05:07;;;;;;;20.85;2.88;;;7.10;99.90;;;;;;5100664;28;20082;-63
2024/02/01 06:07:33;;;;;;;13.40;3.78;;;7.10;99.90;;;;;;5094091;28;20321;-64
2024/02/01 06:10:00;;;;;;;22.58;4.30;;;7.00;99.90;;;;;;5107814;28;20495;-63
2024/02/01 06:12:30;;;;;;;16.23;3.42;;;6.90;99.90;;;;;;5106844;28;20047;-63
2024/02/01 06:15:01;;;;;;;;;;;6.90;99.90;;;;;;5103084;28;20078;-63
2024/02/01 06:17:29;;;;;;;17.52;2.72;;;6.90;99.90;;;;;;5107251;28;19919;-63
2024/02/01 06:19:55;;;;;;;30.05;4.18;;;6.80;99.90;;;;;;5096238;28;20362;-64
2024/02/01 06:22:24;;;;;;;24.42;3.08;;;6.80;99.90;;;;;;5102335;28;20093;-63
2024/02/01 06:24:51;;;;;;;25.15;4.10;;;6.80;99.90;;;;;;5095762;28;20044;-64
2024/02/01 06:27:18;;;;;;;21.33;3.63;;;6.80;99.90;;;;;;5102231;28;20048;-63
2024/02/01 06:29:45;;;;;;;14.50;2.67;;;6.80;99.90;;;;;;5100622;28;20039;-63
2024/02/01 06:32:19;;;;;;;19.17;2.85;;;6.70;99.90;;;;;;5098161;28;20128;-63
2024/02/01 06:34:55;;;;;;;27.02;3.22;;;6.70;99.90;;;;;;5096728;28;20108;-63
2024/02/01 06:37:22;;;;;;;24.80;3.20;;;6.70;99.90;;;;;;5101633;28;20105;-63
2024/02/01 06:42:54;;;;;;;30.02;4.10;;;6.60;99.90;;;;;;5101435;28;20040;-63
2024/02/01 06:45:28;;;;;;;29.92;3.63;;;6.60;99.90;;;;;;5092228;28;20048;-63
2024/02/01 06:48:08;;;;;;;;;;;6.60;99.90;;;;;;5091781;28;20272;-63
2024/02/01 06:50:54;;;;;;;35.08;6.38;;;6.40;99.90;;;;;;5097821;28;20176;-65
2024/02/01 06:53:34;;;;;;;20.60;4.60;;;6.40;99.90;;;;;;5101448;28;20503;-64
2024/02/01 06:56:07;;;;;;;20.25;3.00;;;6.40;99.90;;;;;;5097485;28;20036;-63
2024/02/01 06:58:49;;;;;;;29.10;4.00;;;6.40;99.90;;;;;;5094474;28;20118;-63
2024/02/01 07:01:38;;;;;;;17.70;3.25;;;6.40;99.90;;;;;;5096403;28;20100;-62
2024/02/01 07:04:31;;;;;;;19.35;3.50;;;6.40;99.90;;;;;;5097782;28;20559;-65
2024/02/01 07:09:57;;;;;;;27.20;4.18;;;6.30;99.90;;;;;;5100793;28;20565;-65
2024/02/01 07:18:03;;;;;;;13.00;3.55;;;6.20;99.90;;;;;;5098877;28;20044;-64
2024/02/01 07:20:46;;;;;;;37.63;4.35;;;6.30;99.90;;;;;;5096697;28;20044;-64
2024/02/01 07:26:02;;;;;;;26.38;4.60;;;6.20;99.90;;;;;;5092926;28;20055;-65
2024/02/01 07:58:53;;;;;;;32.63;3.92;;;5.90;99.90;;;;;;5083012;28;20069;-63
2024/02/01 08:01:22;;;;;;;16.23;3.28;;;5.90;99.90;;;;;;5088300;28;20139;-63
2024/02/01 08:04:12;;;;;;;23.52;4.95;;;6.00;99.90;;;;;;5092390;28;20481;-62
2024/02/01 08:09:26;;;;;;;15.93;3.47;;;6.00;99.90;;;;;;5097115;28;20050;-62
2024/02/01 08:11:53;;;;;;;26.75;4.60;;;6.00;99.90;;;;;;5099951;28;20053;-62
2024/02/01 08:14:20;;;;;;;34.95;4.57;;;6.10;99.90;;;;;;5093231;28;20050;-62
2024/02/01 08:16:49;;;;;;;18.80;4.03;;;6.10;99.90;;;;;;5093926;28;20048;-62
2024/02/01 08:19:20;;;;;;;25.02;4.43;;;6.10;99.90;;;;;;5096501;28;20097;-61
2024/02/01 08:22:05;;;;;;;22.52;4.18;;;6.10;99.90;;;;;;5094013;28;20185;-61
2024/02/01 08:24:32;;;;;;;20.13;4.05;;;6.00;99.90;;;;;;5099831;28;20051;-61
2024/02/01 08:26:59;;;;;;;17.80;3.50;;;6.00;99.90;;;;;;5099260;28;20174;-66
2024/02/01 08:29:35;;;;;;;16.02;2.92;;;6.00;99.90;;;;;;5093370;28;20082;-62
2024/02/01 08:32:03;;;;;;;32.90;3.83;;;6.00;99.90;;;;;;5088001;28;20051;-62
2024/02/01 08:34:30;;;;;;;12.70;3.33;;;6.00;99.90;;;;;;5093162;28;20852;-61
2024/02/01 08:36:58;;;;;;;20.48;3.40;;;5.90;99.90;;;;;;5104798;28;20047;-62
2024/02/01 08:39:25;;;;;;;17.95;3.55;;;5.80;99.90;;;;;;5098385;28;20114;-62
2024/02/01 08:41:53;;;;;;;19.27;3.78;;;5.80;99.90;;;;;;5103435;28;20040;-62
2024/02/01 08:44:20;;;;;;;18.58;4.70;;;5.80;99.90;;;;;;5092956;28;20085;-62
2024/02/01 08:46:49;;;;;;;15.38;3.67;;;5.90;99.90;;;;;;5090212;28;20101;-61
2024/02/01 08:49:17;;;;;;;28.02;5.72;;;5.90;99.90;;;;;;5092087;28;20040;-61
2024/02/01 08:51:45;;;;;;;12.57;3.30;;;6.00;99.90;;;;;;5094043;28;20047;-61
2024/02/01 08:54:12;;;;;;;24.65;4.28;;;6.00;99.90;;;;;;5101219;28;20466;-61
2024/02/01 08:56:40;;;;;;;18.00;3.58;;;5.90;99.90;;;;;;5097885;28;20043;-61
2024/02/01 08:59:07;;;;;;;30.63;4.25;;;5.90;99.90;;;;;;5090081;28;20131;-61
2024/02/01 09:01:34;;;;;;;19.67;4.15;;;6.00;99.90;;;;;;5104318;28;20043;-61
2024/02/01 09:04:13;;;;;;;18.75;3.70;;;6.10;99.90;;;;;;5099178;28;20113;-62
2024/02/01 09:06:41;;;;;;;39.85;6.57;;;6.20;99.90;;;;;;5095992;28;20443;-61
2024/02/01 09:09:28;;;;;;;21.13;3.78;;;6.20;99.90;;;;;;5103309;28;20044;-61
2024/02/01 09:11:55;;;;;;;25.58;4.95;;;6.20;99.90;;;;;;5105022;28;20056;-61
2024/02/01 09:14:22;;;;;;;27.42;3.65;;;6.40;99.90;;;;;;5099892;28;20484;-61
2024/02/01 09:16:49;;;;;;;32.50;4.75;;;6.40;99.90;;;;;;5101603;28;20151;-61
2024/02/01 09:19:15;;;;;;;27.23;3.78;;;6.50;99.90;;;;;;5100917;28;20313;-60
2024/02/01 09:21:43;;;;;;;21.52;4.47;;;6.50;99.90;;;;;;5101526;28;20536;-62
2024/02/01 09:24:09;;;;;;;40.30;7.78;;;6.50;99.90;;;;;;5104891;28;20044;-62
2024/02/01 09:26:36;;;;;;;21.98;3.70;;;6.50;99.90;;;;;;5096720;28;20105;-61
2024/02/01 09:29:11;;;;;;;26.40;4.20;;;6.60;99.90;;;;;;5102394;28;20131;-61
2024/02/01 09:31:39;;;;;;;32.75;4.43;;;6.60;99.90;;;;;;5096105;28;20079;-61
2024/02/01 09:34:08;;;;;;;24.70;3.63;;;6.60;99.90;;;;;;5101617;28;20048;-62
2024/02/01 09:36:36;;;;;;;33.08;3.85;;;6.60;99.90;;;;;;5104128;28;20070;-61
2024/02/01 09:39:03;;;;;;;25.95;4.75;;;6.70;99.90;;;;;;5092669;28;20044;-60
2024/02/01 09:41:30;;;;;;;30.75;5.50;;;6.70;99.90;;;;;;5100817;28;20100;-61
2024/02/01 09:43:59;;;;;;;23.63;3.75;;;6.70;99.90;;;;;;5093022;28;20089;-61
2024/02/01 09:46:26;;;;;;;28.38;4.50;;;6.80;99.90;;;;;;5099181;28;20107;-65
2024/02/01 09:48:54;;;;;;;23.90;5.05;;;6.80;99.90;;;;;;5096496;28;20524;-61
2024/02/01 09:51:22;;;;;;;29.27;4.78;;;6.80;99.90;;;;;;5103401;28;20047;-61
2024/02/01 09:53:49;;;;;;;27.55;4.05;;;6.80;99.90;;;;;;5102694;28;20127;-61
2024/02/01 09:56:17;;;;;;;25.20;4.47;;;6.90;99.90;;;;;;5104810;28;20055;-61
2024/02/01 09:58:44;;;;;;;23.58;6.18;;;6.90;99.90;;;;;;5097517;28;20496;-61
2024/02/01 10:01:12;;;;;;;29.52;4.70;;;7.00;99.90;;;;;;5099886;28;20043;-61
2024/02/01 10:03:43;;;;;;;29.92;5.75;;;7.00;99.90;;;;;;5101544;28;20089;-62
2024/02/01 10:06:11;;;;;;;24.00;3.80;;;7.10;99.90;;;;;;5098684;28;20089;-62
2024/02/01 10:08:38;;;;;;;27.08;4.93;;;7.10;99.90;;;;;;5102227;28;20039;-61
2024/02/01 10:11:05;;;;;;;30.92;4.22;;;7.10;99.90;;;;;;5102898;28;20504;-61
2024/02/01 10:13:36;;;;;;;22.13;3.38;;;7.20;99.90;;;;;;5098767;28;20048;-60
2024/02/01 10:16:12;;;;;;;23.75;4.18;;;7.20;99.90;;;;;;5100919;28;20074;-61
2024/02/01 10:18:41;;;;;;;20.60;2.95;;;7.30;99.90;;;;;;5094983;28;20101;-61
2024/02/01 10:21:23;;;;;;;23.40;3.25;;;7.40;99.90;;;;;;5092654;28;20051;-62
2024/02/01 10:24:05;;;;;;;21.30;4.00;;;7.50;99.90;;;;;;5103559;28;20051;-62
2024/02/01 10:26:33;;;;;;;17.08;3.25;;;7.50;99.90;;;;;;5104356;28;20071;-61
2024/02/01 10:29:00;;;;;;;12.77;3.05;;;7.50;99.90;;;;;;5100339;28;20039;-61
2024/02/01 10:31:27;;;;;;;28.58;4.25;;;7.50;99.90;;;;;;5100385;28;20048;-61
2024/02/01 10:33:54;;;;;;;25.35;4.20;;;7.50;99.90;;;;;;5079761;28;20479;-61
2024/02/01 10:36:25;;;;;;;29.40;4.35;;;7.50;99.90;;;;;;5099552;28;20136;-62
2024/02/01 10:38:58;;;;;;;24.35;4.03;;;7.60;99.90;;;;;;5094179;28;20280;-62
2024/02/01 10:41:28;;;;;;;27.38;3.85;;;7.60;99.90;;;;;;5085133;28;20067;-61
2024/02/01 10:43:55;;;;;;;24.05;4.00;;;7.70;99.90;;;;;;5096344;28;20304;-62
2024/02/01 10:46:28;;;;;;;19.70;3.90;;;7.70;99.90;;;;;;5103149;28;20109;-61
2024/02/01 10:49:18;;;;;;;13.77;3.03;;;7.80;99.90;;;;;;5102164;28;20539;-61
2024/02/01 10:51:46;;;;;;;19.35;3.03;;;7.80;99.90;;;;;;5101200;28;20048;-61
2024/02/01 10:54:14;;;;;;;32.83;5.82;;;7.90;99.90;;;;;;5097651;28;20471;-61
2024/02/01 10:56:42;;;;;;;15.85;3.85;;;7.90;99.90;;;;;;5102177;28;20241;-62
2024/02/01 10:59:09;;;;;;;25.05;3.90;;;7.90;99.90;;;;;;5099241;28;20155;-61
2024/02/01 11:01:36;;;;;;;15.73;2.85;;;8.00;99.90;;;;;;5102511;28;20525;-61
2024/02/01 11:04:06;;;;;;;16.20;3.53;;;7.90;99.90;;;;;;5068462;28;20508;-61
2024/02/01 11:06:33;;;;;;;19.48;4.03;;;7.90;99.90;;;;;;5102506;28;20096;-61
2024/02/01 11:09:18;;;;;;;26.17;3.90;;;8.00;99.90;;;;;;5095300;28;20047;-67
2024/02/01 11:11:52;;;;;;;19.60;3.78;;;8.10;99.90;;;;;;5097620;28;20126;-62
2024/02/01 11:14:24;;;;;;;20.20;4.18;;;8.10;99.90;;;;;;5103480;28;20050;-62
2024/02/01 11:16:52;;;;;;;17.88;3.50;;;8.10;99.90;;;;;;5104992;28;20056;-62
2024/02/01 11:19:29;;;;;;;19.60;4.53;;;8.10;99.90;;;;;;5100256;28;20071;-62
2024/02/01 11:22:01;;;;;;;36.28;8.35;;;8.20;99.90;;;;;;5089162;28;20113;-61
2024/02/01 11:24:32;;;;;;;20.17;4.65;;;8.30;99.90;;;;;;5100428;28;20048;-61
2024/02/01 11:27:07;;;;;;;15.43;3.25;;;8.40;99.90;;;;;;5101634;28;20044;-61
2024/02/01 11:29:35;;;;;;;22.25;3.78;;;8.30;99.90;;;;;;5095664;28;20071;-61
2024/02/01 11:32:05;;;;;;;20.10;2.97;;;8.30;99.90;;;;;;5102962;28;20282;-61
2024/02/01 11:34:33;;;;;;;24.52;3.45;;;8.40;99.90;;;;;;5099842;28;20549;-61
2024/02/01 11:37:01;;;;;;;28.90;5.32;;;8.40;99.90;;;;;;5105423;28;20070;-61
2024/02/01 11:39:28;;;;;;;21.20;3.17;;;8.40;99.90;;;;;;5101416;28;20058;-61
2024/02/01 11:41:55;;;;;;;16.58;3.17;;;8.40;99.90;;;;;;5102652;28;20112;-62
2024/02/01 11:44:23;;;;;;;22.45;3.72;;;8.50;99.90;;;;;;5096469;28;20055;-61
2024/02/01 11:46:51;;;;;;;18.95;3.67;;;8.50;99.90;;;;;;5095732;28;20273;-62
2024/02/01 11:49:20;;;;;;;23.88;3.45;;;8.50;99.90;;;;;;5092557;28;20040;-61
2024/02/01 11:51:56;;;;;;;21.63;5.20;;;8.60;99.90;;;;;;5094882;28;20044;-61
2024/02/01 11:54:27;;;;;;;23.17;3.70;;;8.70;99.90;;;;;;5094684;28;20055;-61
2024/02/01 11:56:57;;;;;;;18.25;3.92;;;8.70;99.90;;;;;;5097254;28;20059;-61
2024/02/01 11:59:25;;;;;;;21.77;3.33;;;8.80;99.90;;;;;;5098320;28;20051;-61
2024/02/01 12:01:53;;;;;;;20.85;4.28;;;8.80;99.90;;;;;;5090880;28;20419;-61
2024/02/01 12:04:21;;;;;;;19.92;4.10;;;8.80;99.90;;;;;;5097405;28;20071;-61
2024/02/01 12:06:48;;;;;;;17.83;3.45;;;8.80;99.90;;;;;;5098821;28;20383;-62
2024/02/01 12:09:16;;;;;;;14.35;4.07;;;8.80;99.90;;;;;;5102539;28;20054;-61
2024/02/01 12:11:43;;;;;;;16.85;2.78;;;8.70;99.90;;;;;;5099315;28;20396;-61
2024/02/01 12:14:17;;;;;;;21.10;3.63;;;8.80;99.90;;;;;;5096069;28;20278;-61
2024/02/01 12:16:49;;;;;;;30.15;4.93;;;8.90;99.90;;;;;;5098179;28;20123;-61
2024/02/01 12:19:18;;;;;;;16.30;4.10;;;8.90;99.90;;;;;;5098307;28;20048;-63
2024/02/01 12:21:46;;;;;;;21.98;4.05;;;9.00;99.90;;;;;;5100268;28;20044;-61
2024/02/01 12:24:17;;;;;;;12.57;3.45;;;8.90;99.90;;;;;;5095844;28;20534;-64
2024/02/01 12:26:45;;;;;;;24.92;4.00;;;9.00;99.90;;;;;;5099956;28;20065;-61
2024/02/01 12:29:12;;;;;;;28.15;4.50;;;9.00;99.90;;;;;;5097178;28;20079;-61
2024/02/01 12:31:38;;;;;;;20.98;3.15;;;9.00;99.90;;;;;;5096146;28;20484;-61
2024/02/01 12:34:06;;;;;;;24.48;2.97;;;9.10;99.90;;;;;;5105994;28;20065;-62
2024/02/01 12:36:33;;;;;;;17.80;3.38;;;9.20;99.90;;;;;;5100764;28;20160;-61
2024/02/01 12:39:01;;;;;;;20.45;3.58;;;9.10;99.90;;;;;;5099391;28;20060;-61
2024/02/01 12:41:28;;;;;;;13.60;3.00;;;9.10;99.90;;;;;;5089034;28;20543;-61
2024/02/01 12:43:55;;;;;;;18.70;3.60;;;9.10;99.90;;;;;;5103917;28;20420;-62
2024/02/01 12:46:24;;;;;;;15.10;3.10;;;9.10;99.90;;;;;;5091204;28;20105;-62
2024/02/01 12:48:51;;;;;;;23.15;3.67;;;9.10;99.90;;;;;;5102161;28;20047;-62
2024/02/01 12:51:26;;;;;;;23.48;3.35;;;9.20;99.90;;;;;;5085057;28;20422;-62
2024/02/01 12:53:55;;;;;;;23.73;3.55;;;9.30;99.90;;;;;;5102705;28;20351;-62
2024/02/01 12:56:25;;;;;;;16.23;3.05;;;9.30;99.90;;;;;;5101395;28;20427;-60
2024/02/01 12:58:56;;;;;;;15.95;2.78;;;9.40;99.90;;;;;;5102809;28;20071;-61
2024/02/01 13:01:26;;;;;;;15.30;3.33;;;9.40;99.90;;;;;;5102569;28;20117;-61
2024/02/01 13:03:54;;;;;;;15.93;3.22;;;9.30;99.90;;;;;;5102529;28;20036;-61
2024/02/01 13:06:21;;;;;;;20.95;4.20;;;9.30;99.90;;;;;;5099431;28;20079;-61
2024/02/01 13:08:52;;;;;;;32.47;4.97;;;9.40;99.90;;;;;;5099281;28;20484;-61
2024/02/01 13:11:25;;;;;;;18.85;3.33;;;9.30;99.90;;;;;;5093698;28;20051;-60
2024/02/01 13:13:55;;;;;;;17.33;2.92;;;9.40;99.90;;;;;;5095860;28;20070;-61
2024/02/01 13:16:24;;;;;;;17.02;3.30;;;9.50;99.90;;;;;;5096960;28;20067;-61
2024/02/01 13:18:52;;;;;;;15.65;2.88;;;9.40;99.90;;;;;;5095213;28;20040;-62
2024/02/01 13:21:19;;;;;;;11.73;2.50;;;9.50;99.90;;;;;;5091979;28;20123;-60
2024/02/01 13:23:48;;;;;;;26.50;3.83;;;9.60;99.90;;;;;;5092057;28;20638;-62
2024/02/01 13:26:15;;;;;;;14.38;2.90;;;9.60;99.90;;;;;;5094919;28;20101;-61
2024/02/01 13:28:43;;;;;;;13.65;2.55;;;9.60;99.90;;;;;;5098012;28;20086;-62
2024/02/01 13:31:09;;;;;;;12.30;2.70;;;9.50;99.90;;;;;;5093072;28;20059;-62
2024/02/01 13:33:36;;;;;;;11.80;2.22;;;9.60;99.90;;;;;;5097342;28;20441;-62
2024/02/01 13:36:04;;;;;;;18.38;2.92;;;9.50;99.90;;;;;;5097612;28;20059;-62
2024/02/01 13:38:31;;;;;;;19.13;3.20;;;9.60;99.90;;;;;;5097711;28;20047;-62
2024/02/01 13:40:59;;;;;;;19.88;3.80;;;9.60;99.90;;;;;;5099917;28;20052;-62
2024/02/01 13:43:26;;;;;;;12.85;2.22;;;9.70;99.90;;;;;;5100915;28;20172;-62